Time;durP1;ratioP1;P1;durP2;ratioP2;P2;SDS_P1;SDS_P2;PMS_P1;PMS_P2;Temp;Humidity;BMP_temperature;BMP_pressure;BME280_temperature;BME280_humidity;BME280_pressure;Samples;Min_cycle;Max_cycle;Signal;HPM_P1;HPM_P2
2023/12/17 00:01:09;;;;;;;9.38;5.32;;;3.70;99.90;;;;;;5109990;28;20016;-88
2023/12/17 00:03:35;;;;;;;9.00;6.50;;;3.60;99.90;;;;;;5108936;28;20012;-86
2023/12/17 00:06:00;;;;;;;13.18;7.25;;;3.70;99.90;;;;;;5108665;28;20081;-86
2023/12/17 00:08:26;;;;;;;15.40;7.78;;;3.40;99.90;;;;;;5109350;28;20089;-86
2023/12/17 00:10:52;;;;;;;14.07;7.45;;;3.50;99.90;;;;;;5109833;28;20429;-86
2023/12/17 00:13:18;;;;;;;14.45;7.35;;;3.50;99.90;;;;;;5109730;28;20035;-86
2023/12/17 00:15:44;;;;;;;10.07;7.13;;;3.40;99.90;;;;;;5108473;28;20031;-86
2023/12/17 00:18:11;;;;;;;13.93;7.65;;;3.80;99.90;;;;;;5109867;28;20094;-86
2023/12/17 00:20:37;;;;;;;14.10;7.60;;;3.50;99.90;;;;;;5109781;28;20039;-86
2023/12/17 00:23:04;;;;;;;11.38;6.80;;;3.40;99.90;;;;;;5109705;28;20488;-86
2023/12/17 00:25:33;;;;;;;10.68;6.72;;;3.50;99.90;;;;;;5106856;28;20114;-86
2023/12/17 00:27:58;;;;;;;9.55;6.43;;;3.40;99.90;;;;;;5109534;28;20040;-86
2023/12/17 00:30:24;;;;;;;9.65;6.13;;;3.40;99.90;;;;;;5109185;28;20432;-86
2023/12/17 00:32:49;;;;;;;12.75;7.00;;;3.30;99.90;;;;;;5109543;28;20032;-86
2023/12/17 00:35:15;;;;;;;14.70;7.45;;;3.30;99.90;;;;;;5109104;28;20024;-86
2023/12/17 00:37:41;;;;;;;9.70;6.40;;;4.20;99.90;;;;;;5109495;28;20030;-86
2023/12/17 00:40:07;;;;;;;11.77;6.75;;;3.10;99.90;;;;;;5099117;28;20043;-86
2023/12/17 00:42:33;;;;;;;10.15;6.50;;;3.60;99.90;;;;;;5089040;28;20035;-87
2023/12/17 00:44:59;;;;;;;9.43;6.57;;;3.30;99.90;;;;;;5096270;28;20036;-87
2023/12/17 00:47:24;;;;;;;13.30;6.65;;;3.30;99.90;;;;;;5110189;28;20487;-87
2023/12/17 00:49:51;;;;;;;12.00;7.32;;;3.20;99.90;;;;;;5109440;28;20028;-90
2023/12/17 00:52:17;;;;;;;13.93;7.55;;;3.60;99.90;;;;;;5108120;28;20024;-86
2023/12/17 00:54:42;;;;;;;11.32;6.88;;;3.20;99.90;;;;;;5109394;28;20020;-87
2023/12/17 00:57:08;;;;;;;15.93;7.72;;;3.50;99.90;;;;;;5108652;28;20510;-88
2023/12/17 00:59:34;;;;;;;12.00;6.70;;;3.50;99.90;;;;;;5108127;28;20020;-89
2023/12/17 01:02:00;;;;;;;10.70;7.28;;;3.30;99.90;;;;;;5110039;28;20092;-89
2023/12/17 01:04:25;;;;;;;11.18;6.45;;;3.70;99.90;;;;;;5110316;28;20047;-87
2023/12/17 01:06:51;;;;;;;12.70;6.97;;;3.50;99.90;;;;;;5107425;28;20027;-88
2023/12/17 01:09:17;;;;;;;14.63;7.15;;;3.40;99.90;;;;;;5109298;28;20491;-87
2023/12/17 01:11:43;;;;;;;11.55;6.70;;;3.70;99.90;;;;;;5089056;28;20387;-88
2023/12/17 01:14:09;;;;;;;12.30;6.70;;;3.20;99.90;;;;;;5088787;28;20029;-88
2023/12/17 01:16:34;;;;;;;14.77;6.88;;;3.50;99.90;;;;;;5088870;28;20027;-88
2023/12/17 01:19:00;;;;;;;12.63;7.00;;;3.60;99.90;;;;;;5089655;28;20052;-87
2023/12/17 01:21:26;;;;;;;10.55;6.45;;;3.80;99.90;;;;;;5089800;28;20032;-87
2023/12/17 01:23:52;;;;;;;15.10;6.70;;;3.60;99.90;;;;;;5088627;28;20369;-87
2023/12/17 01:26:23;;;;;;;12.48;6.15;;;3.50;99.90;;;;;;5087128;28;20039;-87
2023/12/17 01:28:49;;;;;;;13.25;6.80;;;3.50;99.90;;;;;;5087933;28;20081;-87
2023/12/17 01:31:15;;;;;;;11.68;6.05;;;4.10;99.90;;;;;;5088734;28;20028;-87
2023/12/17 01:33:41;;;;;;;12.90;6.55;;;3.30;99.90;;;;;;5088617;28;20102;-89
2023/12/17 01:36:07;;;;;;;14.40;7.15;;;3.60;99.90;;;;;;5087400;28;20055;-88
2023/12/17 01:38:32;;;;;;;16.05;7.00;;;4.00;99.90;;;;;;5088666;28;20020;-88
2023/12/17 01:40:58;;;;;;;12.35;7.07;;;3.50;99.90;;;;;;5088111;28;20032;-88
2023/12/17 01:43:23;;;;;;;14.70;7.13;;;3.50;99.90;;;;;;5092231;28;20027;-88
2023/12/17 01:45:50;;;;;;;9.43;5.97;;;3.90;99.90;;;;;;5102198;28;20036;-88
2023/12/17 01:48:16;;;;;;;11.95;6.40;;;4.90;99.90;;;;;;5092084;28;20384;-87
2023/12/17 01:50:42;;;;;;;17.08;6.50;;;3.60;99.90;;;;;;5092293;28;20024;-89
2023/12/17 01:53:08;;;;;;;16.05;6.72;;;3.50;99.90;;;;;;5090766;28;20024;-87
2023/12/17 01:55:34;;;;;;;14.32;6.65;;;3.90;99.90;;;;;;5092073;28;20035;-87
2023/12/17 01:57:59;;;;;;;11.77;6.32;;;3.60;99.90;;;;;;5091259;28;20162;-86
2023/12/17 02:00:25;;;;;;;14.23;6.45;;;4.80;99.90;;;;;;5112429;28;20480;-87
2023/12/17 02:02:51;;;;;;;12.57;7.13;;;4.20;99.90;;;;;;5111129;28;20031;-88
2023/12/17 02:05:16;;;;;;;13.50;7.57;;;5.50;99.90;;;;;;5111038;28;20112;-88
2023/12/17 02:07:42;;;;;;;15.10;7.53;;;3.60;99.90;;;;;;5112095;28;20165;-87
2023/12/17 02:10:08;;;;;;;13.73;7.15;;;3.90;99.90;;;;;;5112176;28;20051;-88
2023/12/17 02:12:34;;;;;;;15.25;7.45;;;4.30;99.90;;;;;;5112126;28;20440;-87
2023/12/17 02:14:59;;;;;;;14.65;6.80;;;4.00;99.90;;;;;;5111523;28;20068;-87
2023/12/17 02:17:30;;;;;;;14.57;7.28;;;3.90;99.90;;;;;;5110774;28;20533;-87
2023/12/17 02:19:56;;;;;;;22.80;8.15;;;3.90;99.90;;;;;;5097189;28;20099;-90
2023/12/17 02:22:22;;;;;;;10.35;6.32;;;3.90;99.90;;;;;;5090285;28;20077;-87
2023/12/17 02:24:49;;;;;;;11.88;6.50;;;4.00;99.90;;;;;;5091425;28;20032;-88
2023/12/17 02:27:23;;;;;;;11.65;6.82;;;4.10;99.90;;;;;;5091575;28;20038;-87
2023/12/17 02:29:49;;;;;;;13.95;7.07;;;4.10;99.90;;;;;;5091606;28;20054;-88
2023/12/17 02:32:16;;;;;;;16.13;7.35;;;4.10;99.90;;;;;;5091496;28;20051;-89
2023/12/17 02:34:42;;;;;;;15.90;7.05;;;5.60;99.90;;;;;;5090020;28;20079;-87
2023/12/17 02:37:08;;;;;;;15.35;6.75;;;4.20;99.90;;;;;;5090048;28;20021;-88
2023/12/17 02:39:33;;;;;;;14.38;7.13;;;4.40;99.90;;;;;;5092016;28;20050;-88
2023/12/17 02:41:59;;;;;;;14.32;7.05;;;4.10;99.90;;;;;;5090817;28;20545;-87
2023/12/17 02:44:25;;;;;;;14.60;7.15;;;4.10;99.90;;;;;;5091178;28;20024;-87
2023/12/17 02:46:51;;;;;;;12.95;6.25;;;5.90;99.90;;;;;;5091222;28;20501;-87
2023/12/17 02:49:17;;;;;;;14.80;6.82;;;4.10;99.90;;;;;;5089635;28;20043;-87
2023/12/17 02:51:43;;;;;;;19.08;7.55;;;4.10;99.90;;;;;;5091064;28;20032;-89
2023/12/17 02:54:08;;;;;;;16.20;6.75;;;4.70;99.90;;;;;;5090964;28;20399;-87
2023/12/17 02:56:41;;;;;;;10.88;6.68;;;5.10;99.90;;;;;;5091423;28;20023;-87
2023/12/17 02:59:11;;;;;;;13.80;6.60;;;4.00;99.90;;;;;;5090847;28;20028;-87
2023/12/17 03:01:36;;;;;;;12.55;6.38;;;6.40;99.90;;;;;;5091040;28;20054;-87
2023/12/17 03:04:03;;;;;;;16.60;6.93;;;4.30;99.90;;;;;;5091389;28;20491;-87
2023/12/17 03:06:29;;;;;;;12.80;6.65;;;4.60;99.90;;;;;;5090566;28;20484;-87
2023/12/17 03:08:54;;;;;;;14.65;6.65;;;4.20;99.90;;;;;;5090702;28;20328;-87
2023/12/17 03:11:20;;;;;;;12.88;6.38;;;4.30;99.90;;;;;;5090547;28;20016;-87
2023/12/17 03:13:45;;;;;;;13.65;6.53;;;6.20;99.90;;;;;;5090609;28;20024;-87
2023/12/17 03:16:11;;;;;;;16.35;6.60;;;4.30;99.90;;;;;;5090507;28;20031;-87
2023/12/17 03:18:37;;;;;;;15.32;6.57;;;4.30;99.90;;;;;;5088685;28;20024;-88
2023/12/17 03:21:05;;;;;;;14.75;6.93;;;4.60;99.90;;;;;;5091395;28;20036;-87
2023/12/17 03:23:30;;;;;;;9.63;6.32;;;4.70;99.90;;;;;;5088668;28;20020;-87
2023/12/17 03:25:56;;;;;;;19.45;7.25;;;6.90;99.90;;;;;;5089944;28;21055;-87
2023/12/17 03:28:21;;;;;;;14.27;7.03;;;5.90;99.90;;;;;;5090256;28;20039;-87
2023/12/17 03:30:47;;;;;;;18.67;7.32;;;4.40;99.90;;;;;;5088943;28;20020;-87
2023/12/17 03:33:13;;;;;;;15.65;6.90;;;5.70;99.90;;;;;;5090260;28;20024;-87
2023/12/17 03:35:38;;;;;;;16.27;7.38;;;4.20;99.90;;;;;;5090108;28;20484;-87
2023/12/17 03:38:04;;;;;;;17.10;6.97;;;4.10;99.90;;;;;;5102168;28;20070;-88
2023/12/17 03:40:30;;;;;;;15.63;7.20;;;4.40;99.90;;;;;;5110476;28;20026;-87
2023/12/17 03:42:56;;;;;;;17.45;7.82;;;4.00;99.90;;;;;;5110496;28;20024;-87
2023/12/17 03:45:22;;;;;;;13.57;7.07;;;6.00;99.90;;;;;;5110360;28;20078;-90
2023/12/17 03:47:48;;;;;;;13.32;7.15;;;4.10;99.90;;;;;;5109944;28;20503;-87
2023/12/17 03:50:18;;;;;;;15.93;6.97;;;4.20;99.90;;;;;;5110215;28;20061;-88
2023/12/17 03:52:47;;;;;;;17.65;7.10;;;4.20;99.90;;;;;;5109969;28;20372;-87
2023/12/17 03:55:14;;;;;;;16.85;7.47;;;4.20;99.90;;;;;;5110169;28;20016;-87
2023/12/17 03:57:40;;;;;;;13.85;7.15;;;4.60;99.90;;;;;;5109218;28;20445;-88
2023/12/17 04:00:06;;;;;;;12.98;7.32;;;4.40;99.90;;;;;;5110815;28;20020;-88
2023/12/17 04:02:32;;;;;;;18.08;7.97;;;4.60;99.90;;;;;;5109581;28;20032;-88
2023/12/17 04:04:58;;;;;;;13.77;7.03;;;4.40;99.90;;;;;;5108779;28;20274;-87
2023/12/17 04:07:26;;;;;;;15.10;7.40;;;4.30;99.90;;;;;;5109883;28;20038;-87
2023/12/17 04:09:52;;;;;;;17.27;7.27;;;4.00;99.90;;;;;;5107980;28;20024;-87
2023/12/17 04:12:18;;;;;;;16.23;7.50;;;4.10;99.90;;;;;;5108565;28;20020;-87
2023/12/17 04:14:44;;;;;;;14.77;7.30;;;6.90;99.90;;;;;;5109851;28;20031;-87
2023/12/17 04:17:09;;;;;;;16.27;7.30;;;4.20;99.90;;;;;;5108824;28;20026;-88
2023/12/17 04:19:35;;;;;;;15.45;7.00;;;4.20;99.90;;;;;;5109335;28;20518;-87
2023/12/17 04:22:00;;;;;;;16.75;6.60;;;4.10;99.90;;;;;;5109820;28;20095;-87
2023/12/17 04:24:26;;;;;;;16.58;6.78;;;4.20;99.90;;;;;;5109741;28;20030;-87
2023/12/17 04:26:52;;;;;;;9.65;6.50;;;4.40;99.90;;;;;;5109643;28;20035;-87
2023/12/17 04:29:19;;;;;;;12.70;6.72;;;4.20;99.90;;;;;;5109497;28;20503;-87
2023/12/17 04:31:45;;;;;;;15.23;7.57;;;4.40;99.90;;;;;;5109661;28;20016;-87
2023/12/17 04:34:11;;;;;;;14.20;7.07;;;4.10;99.90;;;;;;5107939;28;20110;-88
2023/12/17 04:36:38;;;;;;;15.73;7.15;;;4.60;99.90;;;;;;5110493;28;20111;-87
2023/12/17 04:39:04;;;;;;;13.02;6.97;;;4.20;99.90;;;;;;5108124;28;20494;-87
2023/12/17 04:41:29;;;;;;;18.58;6.80;;;3.90;99.90;;;;;;5108214;28;20020;-87
2023/12/17 04:43:55;;;;;;;13.88;6.93;;;4.10;99.90;;;;;;5108066;28;20541;-87
2023/12/17 04:46:21;;;;;;;17.92;7.05;;;4.10;99.90;;;;;;5109474;28;20446;-87
2023/12/17 04:48:46;;;;;;;15.18;7.20;;;3.90;99.90;;;;;;5109447;28;20027;-87
2023/12/17 04:51:12;;;;;;;19.67;7.53;;;6.80;99.90;;;;;;5109345;28;20468;-87
2023/12/17 04:53:38;;;;;;;14.63;6.78;;;4.00;99.90;;;;;;5110242;28;20020;-87
2023/12/17 04:56:04;;;;;;;15.73;7.72;;;4.10;99.90;;;;;;5092224;28;20040;-87
2023/12/17 04:58:29;;;;;;;20.02;7.28;;;4.40;99.90;;;;;;5087749;28;20021;-87
2023/12/17 05:00:59;;;;;;;14.50;7.00;;;3.90;99.90;;;;;;5087692;28;20020;-87
2023/12/17 05:03:25;;;;;;;15.02;7.20;;;3.50;99.90;;;;;;5087601;28;20052;-87
2023/12/17 05:05:51;;;;;;;12.73;6.88;;;3.80;99.90;;;;;;5088958;28;20027;-87
2023/12/17 05:08:16;;;;;;;16.00;7.40;;;3.90;99.90;;;;;;5088910;28;20039;-87
2023/12/17 05:10:42;;;;;;;14.90;7.25;;;3.90;99.90;;;;;;5089368;28;20074;-87
2023/12/17 05:13:08;;;;;;;12.07;6.80;;;4.10;99.90;;;;;;5089706;28;20056;-87
2023/12/17 05:15:34;;;;;;;18.27;7.25;;;3.50;99.90;;;;;;5088616;28;20141;-86
2023/12/17 05:18:00;;;;;;;15.23;7.10;;;4.00;99.90;;;;;;5099040;28;20145;-87
2023/12/17 05:20:25;;;;;;;12.15;7.10;;;3.60;99.90;;;;;;5110965;28;20015;-87
2023/12/17 05:22:51;;;;;;;15.35;6.90;;;3.70;99.90;;;;;;5113135;28;20024;-87
2023/12/17 05:25:16;;;;;;;12.55;7.13;;;3.70;99.90;;;;;;5112939;28;20032;-88
2023/12/17 05:27:43;;;;;;;14.10;7.10;;;3.40;99.90;;;;;;5112468;28;20077;-87
2023/12/17 05:30:09;;;;;;;13.90;6.55;;;4.20;99.90;;;;;;5112540;28;20475;-87
2023/12/17 05:32:35;;;;;;;12.95;7.03;;;3.90;99.90;;;;;;5111614;28;20057;-87
2023/12/17 05:35:00;;;;;;;15.68;7.60;;;3.50;99.90;;;;;;5112848;28;20016;-87
2023/12/17 05:37:26;;;;;;;14.63;7.60;;;4.10;99.90;;;;;;5105970;28;20020;-87
2023/12/17 05:39:51;;;;;;;14.70;7.10;;;3.60;99.90;;;;;;5092445;28;20369;-88
2023/12/17 05:42:17;;;;;;;19.75;7.30;;;3.30;99.90;;;;;;5090988;28;20039;-88
2023/12/17 05:44:43;;;;;;;17.17;7.18;;;3.40;99.90;;;;;;5111665;28;20033;-87
2023/12/17 05:47:08;;;;;;;13.63;7.00;;;3.20;99.90;;;;;;5112700;28;20039;-86
2023/12/17 05:49:39;;;;;;;18.52;6.82;;;3.80;99.90;;;;;;5112929;28;20237;-90
2023/12/17 05:52:07;;;;;;;14.65;6.70;;;3.60;99.90;;;;;;5110770;28;20044;-90
2023/12/17 05:54:33;;;;;;;11.20;7.05;;;3.30;99.90;;;;;;5111914;28;20045;-90
2023/12/17 05:56:59;;;;;;;14.80;7.00;;;3.10;99.90;;;;;;5111968;28;20023;-91
2023/12/17 05:59:24;;;;;;;12.82;7.03;;;3.20;99.90;;;;;;5111860;28;20024;-90
2023/12/17 06:01:50;;;;;;;11.70;6.78;;;2.90;99.90;;;;;;5113129;28;20399;-91
2023/12/17 06:04:16;;;;;;;17.38;7.45;;;3.00;99.90;;;;;;5110202;28;20509;-90
2023/12/17 06:06:42;;;;;;;15.25;7.43;;;;;;;;;;5111712;28;20031;-91
2023/12/17 06:09:08;;;;;;;11.90;6.88;;;3.20;99.90;;;;;;5110616;28;20044;-89
2023/12/17 06:11:33;;;;;;;16.52;7.03;;;2.60;99.90;;;;;;5111456;28;20080;-91
2023/12/17 06:13:59;;;;;;;11.32;7.25;;;2.70;99.90;;;;;;5107508;28;20036;-90
2023/12/17 06:16:25;;;;;;;13.32;6.63;;;3.00;99.90;;;;;;5091435;28;20106;-91
2023/12/17 06:18:52;;;;;;;16.50;7.50;;;2.70;99.90;;;;;;5112715;28;20482;-90
2023/12/17 06:21:25;;;;;;;15.90;7.80;;;2.80;99.90;;;;;;5110079;28;20080;-89
2023/12/17 06:23:57;;;;;;;15.73;7.35;;;2.70;99.90;;;;;;5111132;28;20031;-89
2023/12/17 06:26:23;;;;;;;16.08;8.25;;;2.40;99.90;;;;;;5107717;28;20024;-90
2023/12/17 06:28:49;;;;;;;13.38;8.00;;;2.50;99.90;;;;;;5109709;28;20035;-90
2023/12/17 06:31:15;;;;;;;16.85;7.13;;;2.40;99.90;;;;;;5096343;28;20396;-89
2023/12/17 06:33:41;;;;;;;19.98;9.10;;;2.50;99.90;;;;;;5089192;28;20036;-90
2023/12/17 06:36:07;;;;;;;15.45;8.98;;;2.70;99.90;;;;;;5090465;28;20028;-91
2023/12/17 06:38:33;;;;;;;13.55;8.02;;;2.60;99.90;;;;;;5089823;28;20536;-90
2023/12/17 06:40:59;;;;;;;16.88;8.00;;;;;;;;;;5090052;28;20020;-90
2023/12/17 06:43:24;;;;;;;16.42;8.07;;;2.50;99.90;;;;;;5091705;28;20020;-90
2023/12/17 06:45:50;;;;;;;21.05;10.25;;;2.40;99.90;;;;;;5089921;28;20020;-87
2023/12/17 06:48:16;;;;;;;14.77;8.70;;;2.50;99.90;;;;;;5091317;28;20055;-89
2023/12/17 06:50:41;;;;;;;19.63;9.52;;;2.60;99.90;;;;;;5092396;28;20448;-89
2023/12/17 06:53:07;;;;;;;14.40;8.20;;;2.60;99.90;;;;;;5094228;28;20031;-89
2023/12/17 06:55:32;;;;;;;11.82;7.40;;;2.40;99.90;;;;;;5110135;28;20027;-89
2023/12/17 06:57:58;;;;;;;13.30;7.78;;;2.40;99.90;;;;;;5108866;28;20028;-87
2023/12/17 07:00:24;;;;;;;12.80;7.78;;;2.50;99.90;;;;;;5096914;28;20426;-89
2023/12/17 07:02:49;;;;;;;12.45;8.32;;;2.40;99.90;;;;;;5091516;28;20067;-88
2023/12/17 07:05:15;;;;;;;11.68;8.20;;;2.40;99.90;;;;;;5090698;28;20031;-91
2023/12/17 07:07:43;;;;;;;15.93;8.30;;;2.50;99.90;;;;;;5089910;28;20442;-89
2023/12/17 07:10:11;;;;;;;14.88;7.85;;;2.50;99.90;;;;;;5089402;28;20272;-89
2023/12/17 07:12:36;;;;;;;15.25;7.65;;;2.40;99.90;;;;;;5089607;28;20387;-89
2023/12/17 07:15:02;;;;;;;14.15;7.10;;;2.40;99.90;;;;;;5090823;28;20095;-90
2023/12/17 07:17:27;;;;;;;19.20;7.70;;;2.50;99.90;;;;;;5090626;28;20024;-89
2023/12/17 07:19:53;;;;;;;14.95;7.72;;;2.20;99.90;;;;;;5089707;28;20020;-89
2023/12/17 07:22:22;;;;;;;18.98;9.85;;;2.10;99.90;;;;;;5082596;28;20073;-88
2023/12/17 07:24:51;;;;;;;14.30;9.52;;;2.00;99.90;;;;;;5085648;28;20028;-87
2023/12/17 07:27:17;;;;;;;14.15;8.25;;;2.00;99.90;;;;;;5070718;28;20051;-88
2023/12/17 07:29:42;;;;;;;13.00;8.50;;;2.20;99.90;;;;;;5079535;28;20469;-88
2023/12/17 07:32:08;;;;;;;12.23;7.47;;;2.00;99.90;;;;;;5071482;28;20440;-87
2023/12/17 07:34:34;;;;;;;16.45;8.32;;;1.90;99.90;;;;;;5097124;28;20035;-87
2023/12/17 07:37:00;;;;;;;15.32;7.57;;;2.10;99.90;;;;;;5088660;28;20028;-87
2023/12/17 07:39:26;;;;;;;10.73;6.82;;;1.90;99.90;;;;;;5088844;28;20027;-88
2023/12/17 07:41:52;;;;;;;20.90;7.63;;;1.90;99.90;;;;;;5088852;28;20055;-87
2023/12/17 07:44:18;;;;;;;13.95;7.03;;;;;;;;;;5088472;28;20105;-89
2023/12/17 07:46:44;;;;;;;13.25;6.65;;;;;;;;;;5089879;28;20019;-88
2023/12/17 07:49:10;;;;;;;16.45;7.35;;;;;;;;;;5089259;28;20236;-90
2023/12/17 07:51:38;;;;;;;12.45;6.55;;;;;;;;;;5089144;28;20090;-90
2023/12/17 07:54:07;;;;;;;14.80;6.97;;;;;;;;;;5102159;28;20045;-90
2023/12/17 07:56:33;;;;;;;16.63;7.50;;;2.40;99.90;;;;;;5096036;28;20542;-88
2023/12/17 07:58:59;;;;;;;11.10;7.50;;;;;;;;;;5089832;28;20024;-88
2023/12/17 08:01:29;;;;;;;16.48;7.57;;;;;;;;;;5089681;28;20023;-87
2023/12/17 08:03:55;;;;;;;14.93;7.45;;;;;;;;;;5089374;28;20028;-87
2023/12/17 08:06:22;;;;;;;14.40;7.78;;;;;;;;;;5108209;28;20034;-87
2023/12/17 08:08:47;;;;;;;15.85;8.90;;;2.50;99.90;;;;;;5111174;28;20039;-89
2023/12/17 08:11:13;;;;;;;23.88;10.25;;;2.50;99.90;;;;;;5105588;28;20115;-87
2023/12/17 08:13:39;;;;;;;17.13;9.80;;;2.60;99.90;;;;;;5081197;28;20024;-87
2023/12/17 08:16:05;;;;;;;13.32;9.43;;;2.70;99.90;;;;;;5076955;28;20061;-88
2023/12/17 08:18:31;;;;;;;26.92;9.60;;;3.10;99.90;;;;;;5109400;28;20026;-87
2023/12/17 08:20:59;;;;;;;15.40;8.32;;;2.70;99.90;;;;;;5106237;28;20032;-89
2023/12/17 08:23:26;;;;;;;16.57;9.37;;;2.80;99.90;;;;;;5078907;28;20019;-89
2023/12/17 08:25:52;;;;;;;19.23;9.75;;;2.60;99.90;;;;;;5084001;28;20558;-89
2023/12/17 08:28:19;;;;;;;11.55;8.25;;;3.50;99.90;;;;;;5086435;28;20412;-90
2023/12/17 08:30:45;;;;;;;19.70;8.52;;;2.50;99.90;;;;;;5085799;28;20024;-90
2023/12/17 08:33:11;;;;;;;32.60;8.27;;;2.60;99.90;;;;;;5083447;28;20103;-90
2023/12/17 08:35:37;;;;;;;19.58;8.25;;;2.70;99.90;;;;;;5089099;28;20055;-91
2023/12/17 08:38:05;;;;;;;16.98;8.20;;;3.00;99.90;;;;;;5088715;28;20131;-89
2023/12/17 08:40:37;;;;;;;21.38;8.23;;;2.50;99.90;;;;;;5088924;28;20048;-90
2023/12/17 08:43:03;;;;;;;13.40;7.97;;;2.50;99.90;;;;;;5088599;28;20028;-89
2023/12/17 08:45:30;;;;;;;11.98;7.38;;;2.60;99.90;;;;;;5094530;28;20069;-89
2023/12/17 08:47:56;;;;;;;12.90;7.75;;;2.60;99.90;;;;;;5108205;28;20036;-88
2023/12/17 08:50:22;;;;;;;10.57;8.10;;;2.40;99.90;;;;;;5110743;28;20131;-90
2023/12/17 08:52:47;;;;;;;12.27;7.95;;;2.40;99.90;;;;;;5099037;28;20052;-88
2023/12/17 08:55:13;;;;;;;11.73;7.65;;;2.50;99.90;;;;;;5090723;28;20222;-89
2023/12/17 08:57:39;;;;;;;10.77;7.53;;;3.00;99.90;;;;;;5093580;28;20032;-89
2023/12/17 09:00:05;;;;;;;15.02;7.82;;;2.30;99.90;;;;;;5092151;28;20020;-90
2023/12/17 09:02:32;;;;;;;11.70;8.15;;;2.90;99.90;;;;;;5091590;28;20043;-88
2023/12/17 09:04:57;;;;;;;9.73;7.47;;;2.30;99.90;;;;;;5093411;28;20559;-88
2023/12/17 09:07:24;;;;;;;33.55;8.30;;;2.50;99.90;;;;;;5092735;28;20135;-91
2023/12/17 09:09:50;;;;;;;22.60;8.88;;;2.40;99.90;;;;;;5108113;28;20074;-88
2023/12/17 09:12:16;;;;;;;29.50;7.68;;;2.80;99.90;;;;;;5092659;28;20404;-89
2023/12/17 09:14:42;;;;;;;16.73;7.97;;;2.50;99.90;;;;;;5091421;28;20192;-90
2023/12/17 09:17:08;;;;;;;13.40;8.55;;;2.40;99.90;;;;;;5092901;28;20027;-90
2023/12/17 09:19:33;;;;;;;12.48;8.73;;;2.40;99.90;;;;;;5091732;28;20021;-88
2023/12/17 09:21:59;;;;;;;15.30;8.07;;;2.70;99.90;;;;;;5092487;28;20028;-88
2023/12/17 09:24:25;;;;;;;10.50;8.10;;;4.60;99.90;;;;;;5103292;28;20119;-90
2023/12/17 09:26:50;;;;;;;10.70;8.00;;;3.50;99.90;;;;;;5113912;28;20042;-87
2023/12/17 09:29:16;;;;;;;13.57;8.68;;;3.30;99.90;;;;;;5113583;28;20031;-92
2023/12/17 09:31:42;;;;;;;13.45;8.90;;;2.70;99.90;;;;;;5112394;28;20031;-88
2023/12/17 09:34:07;;;;;;;12.13;8.68;;;3.00;99.90;;;;;;5113226;28;20024;-89
2023/12/17 09:36:33;;;;;;;27.65;8.88;;;2.90;99.90;;;;;;5113454;28;20031;-86
2023/12/17 09:38:59;;;;;;;11.20;8.38;;;2.90;99.90;;;;;;5102033;28;20024;-85
2023/12/17 09:41:26;;;;;;;31.63;8.35;;;2.90;99.90;;;;;;5109062;28;20020;-84
2023/12/17 09:43:52;;;;;;;10.80;7.90;;;2.90;99.90;;;;;;5092898;28;20400;-85
2023/12/17 09:46:18;;;;;;;16.17;8.00;;;3.00;99.90;;;;;;5092491;28;20039;-85
2023/12/17 09:48:45;;;;;;;20.65;8.20;;;3.10;99.90;;;;;;5095085;28;20036;-84
2023/12/17 09:51:12;;;;;;;16.55;7.97;;;2.80;99.90;;;;;;5112374;28;20027;-88
2023/12/17 09:53:38;;;;;;;32.25;8.05;;;3.00;99.90;;;;;;5111407;28;20043;-87
2023/12/17 09:56:04;;;;;;;18.40;7.72;;;3.60;99.90;;;;;;5112537;28;20061;-85
2023/12/17 09:58:30;;;;;;;17.38;7.65;;;3.30;99.90;;;;;;5110921;28;20019;-84
2023/12/17 10:00:55;;;;;;;19.15;8.02;;;2.90;99.90;;;;;;5106166;28;20392;-85
2023/12/17 10:03:21;;;;;;;42.40;8.35;;;3.00;99.90;;;;;;5090864;28;20028;-85
2023/12/17 10:05:53;;;;;;;13.43;8.00;;;3.10;99.90;;;;;;5102366;28;20432;-84
2023/12/17 10:08:20;;;;;;;15.90;7.85;;;3.00;99.90;;;;;;5111680;28;20100;-88
2023/12/17 10:10:46;;;;;;;9.00;7.07;;;3.00;99.90;;;;;;5112540;28;20387;-92
2023/12/17 10:13:20;;;;;;;10.20;7.13;;;3.10;99.90;;;;;;5111513;28;20024;-87
2023/12/17 10:15:51;;;;;;;8.63;7.32;;;3.30;99.90;;;;;;5091965;28;20025;-89
2023/12/17 10:18:17;;;;;;;11.38;8.05;;;3.10;99.90;;;;;;5082584;28;20020;-84
2023/12/17 10:20:47;;;;;;;13.10;8.48;;;3.40;99.90;;;;;;5091439;28;20020;-86
2023/12/17 10:23:13;;;;;;;11.52;8.35;;;3.30;99.90;;;;;;5085955;28;20028;-86
2023/12/17 10:25:40;;;;;;;11.02;8.40;;;3.30;99.90;;;;;;5090619;28;20074;-89
2023/12/17 10:28:08;;;;;;;23.67;8.75;;;3.20;99.90;;;;;;5088715;28;20032;-88
2023/12/17 10:30:35;;;;;;;11.88;7.53;;;3.30;99.90;;;;;;5089064;28;20024;-90
2023/12/17 10:33:02;;;;;;;10.13;7.75;;;3.20;99.90;;;;;;5092413;28;20053;-89
2023/12/17 10:35:30;;;;;;;9.80;7.82;;;3.50;99.90;;;;;;5094739;28;20027;-86
2023/12/17 10:38:01;;;;;;;12.05;7.78;;;3.30;99.90;;;;;;5091117;28;20028;-87
2023/12/17 10:40:28;;;;;;;15.57;8.60;;;3.50;99.90;;;;;;5091139;28;20150;-86
2023/12/17 10:42:56;;;;;;;22.00;7.97;;;3.70;99.90;;;;;;5091751;28;20027;-88
2023/12/17 10:45:23;;;;;;;9.00;7.50;;;3.30;99.90;;;;;;5092269;28;20164;-89
2023/12/17 10:47:52;;;;;;;9.77;6.85;;;3.90;99.90;;;;;;5090627;28;20623;-87
2023/12/17 10:50:19;;;;;;;13.68;7.80;;;4.70;99.90;;;;;;5090998;28;20016;-91
2023/12/17 10:52:49;;;;;;;10.15;7.57;;;3.70;99.90;;;;;;5090851;28;20051;-89
2023/12/17 10:55:21;;;;;;;19.42;8.02;;;4.20;99.90;;;;;;5091382;28;20029;-90
2023/12/17 10:57:57;;;;;;;10.70;7.90;;;3.60;99.90;;;;;;5088669;28;20549;-89
2023/12/17 11:00:26;;;;;;;17.95;8.05;;;3.40;99.90;;;;;;5090237;28;20020;-85
2023/12/17 11:02:57;;;;;;;15.50;8.02;;;3.30;99.90;;;;;;5090920;28;20028;-89
2023/12/17 11:05:22;;;;;;;9.30;7.13;;;3.50;99.90;;;;;;5090433;28;20017;-87
2023/12/17 11:07:48;;;;;;;15.43;7.68;;;4.00;99.90;;;;;;5089633;28;20125;-86
2023/12/17 11:10:17;;;;;;;17.40;9.00;;;3.60;99.90;;;;;;5092480;28;20078;-84
2023/12/17 11:12:45;;;;;;;11.68;8.90;;;3.50;99.90;;;;;;5101420;28;20036;-88
2023/12/17 11:15:12;;;;;;;11.50;7.60;;;3.80;99.90;;;;;;5096432;28;20073;-84
2023/12/17 11:17:39;;;;;;;13.23;9.05;;;3.30;99.90;;;;;;5092903;28;20084;-85
2023/12/17 11:20:06;;;;;;;13.43;7.65;;;4.30;99.90;;;;;;5090370;28;20020;-86
2023/12/17 11:22:36;;;;;;;15.93;9.75;;;3.90;99.90;;;;;;5090386;28;20503;-85
2023/12/17 11:25:02;;;;;;;12.73;8.85;;;4.00;99.90;;;;;;5089783;28;20055;-85
2023/12/17 11:27:31;;;;;;;14.23;9.73;;;4.00;99.90;;;;;;5090959;28;20031;-87
2023/12/17 11:29:56;;;;;;;13.05;8.57;;;3.80;99.90;;;;;;5090773;28;20399;-85
2023/12/17 11:32:27;;;;;;;10.50;7.60;;;3.60;99.90;;;;;;5089854;28;20020;-84
2023/12/17 11:34:53;;;;;;;14.10;7.78;;;3.40;99.90;;;;;;5089813;28;20461;-84
2023/12/17 11:37:24;;;;;;;12.73;8.00;;;3.40;99.90;;;;;;5089818;28;20388;-84
2023/12/17 11:39:51;;;;;;;11.15;8.27;;;4.00;99.90;;;;;;5089251;28;20024;-84
2023/12/17 11:42:18;;;;;;;12.15;8.20;;;3.30;99.90;;;;;;5089956;28;20016;-84
2023/12/17 11:44:48;;;;;;;11.30;7.75;;;3.60;99.90;;;;;;5089576;28;20020;-84
2023/12/17 11:47:15;;;;;;;10.70;7.75;;;4.00;99.90;;;;;;5089647;28;20040;-84
2023/12/17 11:49:42;;;;;;;10.68;7.88;;;3.70;99.90;;;;;;5088337;28;20107;-83
2023/12/17 11:52:16;;;;;;;11.35;7.45;;;3.90;99.90;;;;;;5089455;28;20063;-83
2023/12/17 11:54:45;;;;;;;14.80;9.10;;;3.80;99.90;;;;;;5094028;28;20020;-83
2023/12/17 11:57:20;;;;;;;14.38;8.98;;;3.80;99.90;;;;;;5109423;28;20024;-84
2023/12/17 11:59:46;;;;;;;14.07;8.68;;;4.20;99.90;;;;;;5109631;28;20428;-84
2023/12/17 12:02:16;;;;;;;11.95;7.70;;;4.10;99.90;;;;;;5109466;28;20107;-84
2023/12/17 12:04:42;;;;;;;9.55;7.22;;;3.80;99.90;;;;;;5105206;28;20027;-86
2023/12/17 12:07:08;;;;;;;13.18;6.95;;;3.80;99.90;;;;;;5087749;28;20032;-85
2023/12/17 12:09:34;;;;;;;9.43;6.22;;;3.80;99.90;;;;;;5089101;28;20115;-85
2023/12/17 12:11:59;;;;;;;13.32;6.80;;;3.80;99.90;;;;;;5095760;28;20103;-84
2023/12/17 12:14:25;;;;;;;11.00;8.20;;;3.90;99.90;;;;;;5099535;28;20136;-85
2023/12/17 12:16:54;;;;;;;10.95;7.30;;;3.70;99.90;;;;;;5089135;28;20027;-86
2023/12/17 12:19:21;;;;;;;;;;;4.20;99.90;;;;;;5088107;28;20131;-85
2023/12/17 12:21:50;;;;;;;8.43;6.60;;;4.30;99.90;;;;;;5088964;28;20379;-84
2023/12/17 12:24:21;;;;;;;9.55;5.65;;;5.30;99.90;;;;;;5089008;28;20031;-83
2023/12/17 12:26:47;;;;;;;12.50;6.88;;;4.90;99.90;;;;;;5090704;28;20036;-84
2023/12/17 12:29:12;;;;;;;8.60;6.32;;;4.20;99.90;;;;;;5108489;28;20422;-85
2023/12/17 12:31:38;;;;;;;10.05;7.03;;;4.00;99.90;;;;;;5109202;28;20031;-86
2023/12/17 12:34:05;;;;;;;8.57;6.95;;;3.90;99.90;;;;;;5109637;28;20027;-84
2023/12/17 12:36:47;;;;;;;12.93;6.82;;;3.80;99.90;;;;;;5109949;28;20023;-88
2023/12/17 12:39:15;;;;;;;10.43;7.28;;;5.30;99.90;;;;;;5109051;28;20065;-87
2023/12/17 12:41:45;;;;;;;20.85;7.13;;;4.30;99.90;;;;;;5109336;28;20020;-87
2023/12/17 12:44:13;;;;;;;12.80;7.75;;;4.10;99.90;;;;;;5107764;28;20035;-84
2023/12/17 12:46:39;;;;;;;12.02;8.30;;;4.10;99.90;;;;;;5108977;28;20031;-85